sensor_id;sensor_type;location;lat;lon;timestamp;temperature;humidity
66271;DHT22;53063;39.614;8.814;2024-02-16T00:00:25;10.70;99.90
66271;DHT22;53063;39.614;8.814;2024-02-16T00:02:51;10.80;99.90
66271;DHT22;53063;39.614;8.814;2024-02-16T00:05:17;10.80;99.90
66271;DHT22;53063;39.614;8.814;2024-02-16T00:07:43;10.70;99.90
66271;DHT22;53063;39.614;8.814;2024-02-16T00:10:09;10.70;99.90
66271;DHT22;53063;39.614;8.814;2024-02-16T00:12:36;10.70;99.90
66271;DHT22;53063;39.614;8.814;2024-02-16T00:15:03;10.70;99.90
66271;DHT22;53063;39.614;8.814;2024-02-16T00:17:29;10.70;99.90
66271;DHT22;53063;39.614;8.814;2024-02-16T00:19:55;10.70;99.90
66271;DHT22;53063;39.614;8.814;2024-02-16T00:22:21;10.60;99.90
66271;DHT22;53063;39.614;8.814;2024-02-16T00:24:47;10.70;99.90
66271;DHT22;53063;39.614;8.814;2024-02-16T00:27:16;10.60;99.90
66271;DHT22;53063;39.614;8.814;2024-02-16T00:29:43;10.60;99.90
66271;DHT22;53063;39.614;8.814;2024-02-16T00:32:12;10.60;99.90
66271;DHT22;53063;39.614;8.814;2024-02-16T00:34:38;10.50;99.90
66271;DHT22;53063;39.614;8.814;2024-02-16T00:37:05;10.50;99.90
66271;DHT22;53063;39.614;8.814;2024-02-16T00:39:36;10.50;99.90
66271;DHT22;53063;39.614;8.814;2024-02-16T00:42:03;10.50;99.90
66271;DHT22;53063;39.614;8.814;2024-02-16T00:44:28;10.50;99.90
66271;DHT22;53063;39.614;8.814;2024-02-16T00:46:55;10.50;99.90
66271;DHT22;53063;39.614;8.814;2024-02-16T00:49:21;10.50;99.90
66271;DHT22;53063;39.614;8.814;2024-02-16T00:51:47;10.50;99.90
66271;DHT22;53063;39.614;8.814;2024-02-16T00:54:14;10.50;99.90
66271;DHT22;53063;39.614;8.814;2024-02-16T00:56:39;10.50;99.90
66271;DHT22;53063;39.614;8.814;2024-02-16T00:59:05;10.50;99.90
66271;DHT22;53063;39.614;8.814;2024-02-16T01:01:34;10.50;99.90
66271;DHT22;53063;39.614;8.814;2024-02-16T01:04:01;10.60;99.90
66271;DHT22;53063;39.614;8.814;2024-02-16T01:06:28;10.50;99.90
66271;DHT22;53063;39.614;8.814;2024-02-16T01:08:54;10.40;99.90
66271;DHT22;53063;39.614;8.814;2024-02-16T01:11:20;10.40;99.90
66271;DHT22;53063;39.614;8.814;2024-02-16T01:13:46;10.40;99.90
66271;DHT22;53063;39.614;8.814;2024-02-16T01:16:12;10.30;99.90
66271;DHT22;53063;39.614;8.814;2024-02-16T01:18:39;10.30;99.90
66271;DHT22;53063;39.614;8.814;2024-02-16T01:21:05;10.20;99.90
66271;DHT22;53063;39.614;8.814;2024-02-16T01:23:31;10.30;99.90
66271;DHT22;53063;39.614;8.814;2024-02-16T01:25:58;10.40;99.90
66271;DHT22;53063;39.614;8.814;2024-02-16T01:28:23;10.70;99.90
66271;DHT22;53063;39.614;8.814;2024-02-16T01:30:51;10.80;99.30
66271;DHT22;53063;39.614;8.814;2024-02-16T01:33:17;11.00;96.60
66271;DHT22;53063;39.614;8.814;2024-02-16T01:35:42;11.10;94.60
66271;DHT22;53063;39.614;8.814;2024-02-16T01:38:08;11.20;94.30
66271;DHT22;53063;39.614;8.814;2024-02-16T01:40:34;11.20;95.10
66271;DHT22;53063;39.614;8.814;2024-02-16T01:43:00;11.10;96.20
66271;DHT22;53063;39.614;8.814;2024-02-16T01:45:26;11.10;96.80
66271;DHT22;53063;39.614;8.814;2024-02-16T01:47:53;11.10;96.70
66271;DHT22;53063;39.614;8.814;2024-02-16T01:50:21;11.10;97.00
66271;DHT22;53063;39.614;8.814;2024-02-16T01:52:48;11.10;97.60
66271;DHT22;53063;39.614;8.814;2024-02-16T01:55:16;11.10;97.80
66271;DHT22;53063;39.614;8.814;2024-02-16T01:57:48;11.10;97.60
66271;DHT22;53063;39.614;8.814;2024-02-16T02:00:15;11.00;98.00
66271;DHT22;53063;39.614;8.814;2024-02-16T02:02:46;11.10;97.10
66271;DHT22;53063;39.614;8.814;2024-02-16T02:05:13;11.10;97.10
66271;DHT22;53063;39.614;8.814;2024-02-16T02:07:41;11.10;96.50
66271;DHT22;53063;39.614;8.814;2024-02-16T02:10:07;11.10;96.50
66271;DHT22;53063;39.614;8.814;2024-02-16T02:12:34;11.10;96.30
66271;DHT22;53063;39.614;8.814;2024-02-16T02:15:00;11.10;96.30
66271;DHT22;53063;39.614;8.814;2024-02-16T02:17:26;11.10;95.70
66271;DHT22;53063;39.614;8.814;2024-02-16T02:19:52;11.10;95.90
66271;DHT22;53063;39.614;8.814;2024-02-16T02:22:20;11.00;95.90
66271;DHT22;53063;39.614;8.814;2024-02-16T02:24:47;11.00;96.00
66271;DHT22;53063;39.614;8.814;2024-02-16T02:27:15;11.00;95.40
66271;DHT22;53063;39.614;8.814;2024-02-16T02:29:41;11.10;94.50
66271;DHT22;53063;39.614;8.814;2024-02-16T02:32:08;11.10;93.90
66271;DHT22;53063;39.614;8.814;2024-02-16T02:34:35;11.10;93.60
66271;DHT22;53063;39.614;8.814;2024-02-16T02:37:04;11.10;93.20
66271;DHT22;53063;39.614;8.814;2024-02-16T02:39:30;11.10;92.70
66271;DHT22;53063;39.614;8.814;2024-02-16T02:41:56;11.10;93.20
66271;DHT22;53063;39.614;8.814;2024-02-16T02:44:24;11.10;93.50
66271;DHT22;53063;39.614;8.814;2024-02-16T02:46:50;11.10;93.50
66271;DHT22;53063;39.614;8.814;2024-02-16T02:49:17;11.20;93.00
66271;DHT22;53063;39.614;8.814;2024-02-16T02:51:43;11.10;93.10
66271;DHT22;53063;39.614;8.814;2024-02-16T02:54:09;11.10;93.20
66271;DHT22;53063;39.614;8.814;2024-02-16T02:56:35;11.10;93.30
66271;DHT22;53063;39.614;8.814;2024-02-16T02:59:01;11.20;92.70
66271;DHT22;53063;39.614;8.814;2024-02-16T03:01:27;11.20;92.30
66271;DHT22;53063;39.614;8.814;2024-02-16T03:03:53;11.10;92.90
66271;DHT22;53063;39.614;8.814;2024-02-16T03:06:20;11.10;93.50
66271;DHT22;53063;39.614;8.814;2024-02-16T03:08:46;11.00;94.30
66271;DHT22;53063;39.614;8.814;2024-02-16T03:11:12;11.00;94.20
66271;DHT22;53063;39.614;8.814;2024-02-16T03:13:38;10.90;94.80
66271;DHT22;53063;39.614;8.814;2024-02-16T03:16:04;10.90;95.00
66271;DHT22;53063;39.614;8.814;2024-02-16T03:18:31;10.90;94.70
66271;DHT22;53063;39.614;8.814;2024-02-16T03:20:57;10.90;94.40
66271;DHT22;53063;39.614;8.814;2024-02-16T03:23:23;10.90;93.90
66271;DHT22;53063;39.614;8.814;2024-02-16T03:25:50;11.10;91.40
66271;DHT22;53063;39.614;8.814;2024-02-16T03:28:16;11.10;90.30
66271;DHT22;53063;39.614;8.814;2024-02-16T03:30:43;11.20;89.50
66271;DHT22;53063;39.614;8.814;2024-02-16T03:33:09;11.20;89.10
66271;DHT22;53063;39.614;8.814;2024-02-16T03:35:36;11.20;88.90
66271;DHT22;53063;39.614;8.814;2024-02-16T03:38:05;11.20;86.40
66271;DHT22;53063;39.614;8.814;2024-02-16T03:40:31;11.30;84.20
66271;DHT22;53063;39.614;8.814;2024-02-16T03:42:58;11.30;82.20
66271;DHT22;53063;39.614;8.814;2024-02-16T03:45:24;11.30;81.20
66271;DHT22;53063;39.614;8.814;2024-02-16T03:47:52;11.40;79.80
66271;DHT22;53063;39.614;8.814;2024-02-16T03:50:19;11.50;78.20
66271;DHT22;53063;39.614;8.814;2024-02-16T03:52:45;11.50;78.20
66271;DHT22;53063;39.614;8.814;2024-02-16T03:55:11;11.40;79.50
66271;DHT22;53063;39.614;8.814;2024-02-16T03:57:37;11.30;80.70
66271;DHT22;53063;39.614;8.814;2024-02-16T04:00:04;11.20;81.10
66271;DHT22;53063;39.614;8.814;2024-02-16T04:02:39;11.20;80.80
66271;DHT22;53063;39.614;8.814;2024-02-16T04:05:05;11.30;80.20
66271;DHT22;53063;39.614;8.814;2024-02-16T04:07:34;11.30;79.70
66271;DHT22;53063;39.614;8.814;2024-02-16T04:10:00;11.30;79.00
66271;DHT22;53063;39.614;8.814;2024-02-16T04:12:26;11.40;77.50
66271;DHT22;53063;39.614;8.814;2024-02-16T04:14:51;11.40;77.40
66271;DHT22;53063;39.614;8.814;2024-02-16T04:17:17;11.40;77.30
66271;DHT22;53063;39.614;8.814;2024-02-16T04:19:44;11.40;76.80
66271;DHT22;53063;39.614;8.814;2024-02-16T04:22:09;11.40;76.80
66271;DHT22;53063;39.614;8.814;2024-02-16T04:24:35;11.40;76.80
66271;DHT22;53063;39.614;8.814;2024-02-16T04:27:01;11.50;76.50
66271;DHT22;53063;39.614;8.814;2024-02-16T04:29:27;11.50;76.80
66271;DHT22;53063;39.614;8.814;2024-02-16T04:31:53;11.50;76.80
66271;DHT22;53063;39.614;8.814;2024-02-16T04:34:19;11.50;77.40
66271;DHT22;53063;39.614;8.814;2024-02-16T04:36:45;11.50;77.80
66271;DHT22;53063;39.614;8.814;2024-02-16T04:39:11;11.40;78.00
66271;DHT22;53063;39.614;8.814;2024-02-16T04:41:37;11.40;78.60
66271;DHT22;53063;39.614;8.814;2024-02-16T04:44:04;11.40;79.20
66271;DHT22;53063;39.614;8.814;2024-02-16T04:46:29;11.40;79.30
66271;DHT22;53063;39.614;8.814;2024-02-16T04:48:55;11.40;79.40
66271;DHT22;53063;39.614;8.814;2024-02-16T04:51:21;11.40;79.30
66271;DHT22;53063;39.614;8.814;2024-02-16T04:53:47;11.40;78.70
66271;DHT22;53063;39.614;8.814;2024-02-16T04:56:13;11.50;78.40
66271;DHT22;53063;39.614;8.814;2024-02-16T04:58:42;11.50;77.90
66271;DHT22;53063;39.614;8.814;2024-02-16T05:01:09;11.40;78.40
66271;DHT22;53063;39.614;8.814;2024-02-16T05:03:35;11.50;78.70
66271;DHT22;53063;39.614;8.814;2024-02-16T05:06:01;11.50;78.30
66271;DHT22;53063;39.614;8.814;2024-02-16T05:08:27;11.50;78.00
66271;DHT22;53063;39.614;8.814;2024-02-16T05:10:53;11.50;77.80
66271;DHT22;53063;39.614;8.814;2024-02-16T05:13:18;11.50;77.80
66271;DHT22;53063;39.614;8.814;2024-02-16T05:15:44;11.50;77.90
66271;DHT22;53063;39.614;8.814;2024-02-16T05:18:10;11.50;78.30
66271;DHT22;53063;39.614;8.814;2024-02-16T05:20:40;11.50;77.80
66271;DHT22;53063;39.614;8.814;2024-02-16T05:23:06;11.50;78.00
66271;DHT22;53063;39.614;8.814;2024-02-16T05:25:32;11.50;78.50
66271;DHT22;53063;39.614;8.814;2024-02-16T05:27:57;11.40;78.70
66271;DHT22;53063;39.614;8.814;2024-02-16T05:30:24;11.40;79.00
66271;DHT22;53063;39.614;8.814;2024-02-16T05:32:50;11.30;79.60
66271;DHT22;53063;39.614;8.814;2024-02-16T05:35:18;11.30;80.20
66271;DHT22;53063;39.614;8.814;2024-02-16T05:37:45;11.20;80.50
66271;DHT22;53063;39.614;8.814;2024-02-16T05:40:17;11.20;80.60
66271;DHT22;53063;39.614;8.814;2024-02-16T05:42:57;11.40;79.60
66271;DHT22;53063;39.614;8.814;2024-02-16T05:45:24;11.30;80.10
66271;DHT22;53063;39.614;8.814;2024-02-16T05:47:51;11.40;80.30
66271;DHT22;53063;39.614;8.814;2024-02-16T05:50:17;11.50;79.80
66271;DHT22;53063;39.614;8.814;2024-02-16T05:52:43;11.50;80.20
66271;DHT22;53063;39.614;8.814;2024-02-16T05:55:10;11.50;80.40
66271;DHT22;53063;39.614;8.814;2024-02-16T05:57:37;11.50;80.50
66271;DHT22;53063;39.614;8.814;2024-02-16T06:00:04;11.50;80.80
66271;DHT22;53063;39.614;8.814;2024-02-16T06:02:32;11.40;81.50
66271;DHT22;53063;39.614;8.814;2024-02-16T06:05:01;11.40;82.60
66271;DHT22;53063;39.614;8.814;2024-02-16T06:07:29;11.40;83.20
66271;DHT22;53063;39.614;8.814;2024-02-16T06:09:55;11.40;83.50
66271;DHT22;53063;39.614;8.814;2024-02-16T06:12:22;11.40;83.40
66271;DHT22;53063;39.614;8.814;2024-02-16T06:14:47;11.50;83.30
66271;DHT22;53063;39.614;8.814;2024-02-16T06:17:18;11.50;83.40
66271;DHT22;53063;39.614;8.814;2024-02-16T06:19:44;11.50;83.70
66271;DHT22;53063;39.614;8.814;2024-02-16T06:22:10;11.50;82.90
66271;DHT22;53063;39.614;8.814;2024-02-16T06:24:36;11.60;82.60
66271;DHT22;53063;39.614;8.814;2024-02-16T06:27:02;11.60;82.60
66271;DHT22;53063;39.614;8.814;2024-02-16T06:29:29;11.60;82.20
66271;DHT22;53063;39.614;8.814;2024-02-16T06:31:56;11.70;81.60
66271;DHT22;53063;39.614;8.814;2024-02-16T06:34:22;11.80;81.40
66271;DHT22;53063;39.614;8.814;2024-02-16T06:36:48;11.70;82.30
66271;DHT22;53063;39.614;8.814;2024-02-16T06:39:15;11.70;82.50
66271;DHT22;53063;39.614;8.814;2024-02-16T06:41:46;11.80;82.50
66271;DHT22;53063;39.614;8.814;2024-02-16T06:44:13;11.80;82.30
66271;DHT22;53063;39.614;8.814;2024-02-16T06:46:39;11.80;81.50
66271;DHT22;53063;39.614;8.814;2024-02-16T06:49:05;11.80;81.80
66271;DHT22;53063;39.614;8.814;2024-02-16T06:51:30;11.90;81.20
66271;DHT22;53063;39.614;8.814;2024-02-16T06:53:56;11.90;80.70
66271;DHT22;53063;39.614;8.814;2024-02-16T06:56:22;12.00;80.70
66271;DHT22;53063;39.614;8.814;2024-02-16T06:58:49;12.10;80.30
66271;DHT22;53063;39.614;8.814;2024-02-16T07:01:16;12.00;81.00
66271;DHT22;53063;39.614;8.814;2024-02-16T07:03:44;12.00;81.30
66271;DHT22;53063;39.614;8.814;2024-02-16T07:06:10;12.00;81.50
66271;DHT22;53063;39.614;8.814;2024-02-16T07:08:40;12.00;82.20
66271;DHT22;53063;39.614;8.814;2024-02-16T07:11:06;12.00;82.40
66271;DHT22;53063;39.614;8.814;2024-02-16T07:13:35;12.10;82.00
66271;DHT22;53063;39.614;8.814;2024-02-16T07:16:02;12.10;82.20
66271;DHT22;53063;39.614;8.814;2024-02-16T07:18:30;12.10;81.80
66271;DHT22;53063;39.614;8.814;2024-02-16T07:20:56;12.20;81.40
66271;DHT22;53063;39.614;8.814;2024-02-16T07:23:22;12.20;81.20
66271;DHT22;53063;39.614;8.814;2024-02-16T07:25:48;12.30;80.90
66271;DHT22;53063;39.614;8.814;2024-02-16T07:28:14;12.30;81.10
66271;DHT22;53063;39.614;8.814;2024-02-16T07:30:40;12.30;81.30
66271;DHT22;53063;39.614;8.814;2024-02-16T07:33:06;12.40;81.30
66271;DHT22;53063;39.614;8.814;2024-02-16T07:35:36;12.50;80.70
66271;DHT22;53063;39.614;8.814;2024-02-16T07:38:02;12.40;81.30
66271;DHT22;53063;39.614;8.814;2024-02-16T07:40:28;12.50;81.10
66271;DHT22;53063;39.614;8.814;2024-02-16T07:42:54;12.60;81.70
66271;DHT22;53063;39.614;8.814;2024-02-16T07:45:21;12.70;81.40
66271;DHT22;53063;39.614;8.814;2024-02-16T07:47:47;12.90;81.60
66271;DHT22;53063;39.614;8.814;2024-02-16T07:50:13;13.00;79.70
66271;DHT22;53063;39.614;8.814;2024-02-16T07:52:39;13.20;78.20
66271;DHT22;53063;39.614;8.814;2024-02-16T07:55:06;13.30;77.70
66271;DHT22;53063;39.614;8.814;2024-02-16T07:57:32;13.80;75.60
66271;DHT22;53063;39.614;8.814;2024-02-16T07:59:58;14.10;73.10
66271;DHT22;53063;39.614;8.814;2024-02-16T08:02:24;14.50;71.20
66271;DHT22;53063;39.614;8.814;2024-02-16T08:04:50;14.90;70.30
66271;DHT22;53063;39.614;8.814;2024-02-16T08:07:17;15.40;67.80
66271;DHT22;53063;39.614;8.814;2024-02-16T08:09:49;15.40;69.30
66271;DHT22;53063;39.614;8.814;2024-02-16T08:12:15;15.90;67.30
66271;DHT22;53063;39.614;8.814;2024-02-16T08:14:41;15.50;67.80
66271;DHT22;53063;39.614;8.814;2024-02-16T08:17:08;15.70;66.70
66271;DHT22;53063;39.614;8.814;2024-02-16T08:19:38;15.70;67.00
66271;DHT22;53063;39.614;8.814;2024-02-16T08:22:05;15.80;65.50
66271;DHT22;53063;39.614;8.814;2024-02-16T08:24:35;15.80;66.10
66271;DHT22;53063;39.614;8.814;2024-02-16T08:27:01;15.80;66.70
66271;DHT22;53063;39.614;8.814;2024-02-16T08:29:28;16.20;65.60
66271;DHT22;53063;39.614;8.814;2024-02-16T08:31:57;16.70;63.90
66271;DHT22;53063;39.614;8.814;2024-02-16T08:34:23;16.70;62.80
66271;DHT22;53063;39.614;8.814;2024-02-16T08:36:51;16.00;65.00
66271;DHT22;53063;39.614;8.814;2024-02-16T08:39:17;16.10;66.00
66271;DHT22;53063;39.614;8.814;2024-02-16T08:41:45;17.10;62.40
66271;DHT22;53063;39.614;8.814;2024-02-16T08:44:14;16.70;62.60
66271;DHT22;53063;39.614;8.814;2024-02-16T08:46:40;16.80;63.30
66271;DHT22;53063;39.614;8.814;2024-02-16T08:49:06;17.40;61.50
66271;DHT22;53063;39.614;8.814;2024-02-16T08:51:33;17.40;60.80
66271;DHT22;53063;39.614;8.814;2024-02-16T08:53:59;17.80;60.60
66271;DHT22;53063;39.614;8.814;2024-02-16T08:56:27;18.30;59.50
66271;DHT22;53063;39.614;8.814;2024-02-16T08:58:53;17.50;62.00
66271;DHT22;53063;39.614;8.814;2024-02-16T09:01:37;17.20;62.80
66271;DHT22;53063;39.614;8.814;2024-02-16T09:04:03;17.30;63.60
66271;DHT22;53063;39.614;8.814;2024-02-16T09:06:29;18.00;62.30
66271;DHT22;53063;39.614;8.814;2024-02-16T09:08:56;18.60;61.80
66271;DHT22;53063;39.614;8.814;2024-02-16T09:11:23;19.20;59.80
66271;DHT22;53063;39.614;8.814;2024-02-16T09:13:49;19.80;55.70
66271;DHT22;53063;39.614;8.814;2024-02-16T09:16:15;20.50;53.20
66271;DHT22;53063;39.614;8.814;2024-02-16T09:18:41;19.80;55.00
66271;DHT22;53063;39.614;8.814;2024-02-16T09:21:08;20.70;52.50
66271;DHT22;53063;39.614;8.814;2024-02-16T09:23:35;21.00;51.20
66271;DHT22;53063;39.614;8.814;2024-02-16T09:26:01;21.50;49.80
66271;DHT22;53063;39.614;8.814;2024-02-16T09:28:30;21.40;49.40
66271;DHT22;53063;39.614;8.814;2024-02-16T09:30:56;21.00;49.80
66271;DHT22;53063;39.614;8.814;2024-02-16T09:33:23;20.20;51.20
66271;DHT22;53063;39.614;8.814;2024-02-16T09:35:52;19.90;53.40
66271;DHT22;53063;39.614;8.814;2024-02-16T09:38:19;21.20;49.80
66271;DHT22;53063;39.614;8.814;2024-02-16T09:40:45;20.50;49.50
66271;DHT22;53063;39.614;8.814;2024-02-16T09:43:25;20.50;48.70
66271;DHT22;53063;39.614;8.814;2024-02-16T09:45:59;21.10;47.30
66271;DHT22;53063;39.614;8.814;2024-02-16T09:48:28;21.80;47.00
66271;DHT22;53063;39.614;8.814;2024-02-16T09:50:57;21.00;47.10
66271;DHT22;53063;39.614;8.814;2024-02-16T09:53:28;19.80;50.10
66271;DHT22;53063;39.614;8.814;2024-02-16T09:55:54;20.10;49.10
66271;DHT22;53063;39.614;8.814;2024-02-16T09:58:20;18.70;51.60
66271;DHT22;53063;39.614;8.814;2024-02-16T10:03:31;17.70;55.20
66271;DHT22;53063;39.614;8.814;2024-02-16T10:06:09;17.80;55.80
66271;DHT22;53063;39.614;8.814;2024-02-16T10:08:53;17.90;55.90
66271;DHT22;53063;39.614;8.814;2024-02-16T10:11:21;18.60;54.30
66271;DHT22;53063;39.614;8.814;2024-02-16T10:13:56;19.10;52.50
66271;DHT22;53063;39.614;8.814;2024-02-16T10:16:22;18.90;52.20
66271;DHT22;53063;39.614;8.814;2024-02-16T10:18:48;18.90;53.10
66271;DHT22;53063;39.614;8.814;2024-02-16T10:21:27;19.50;51.30
66271;DHT22;53063;39.614;8.814;2024-02-16T10:24:00;19.60;51.80
66271;DHT22;53063;39.614;8.814;2024-02-16T10:26:31;19.90;51.80
66271;DHT22;53063;39.614;8.814;2024-02-16T10:28:58;20.20;50.70
66271;DHT22;53063;39.614;8.814;2024-02-16T10:31:25;20.30;50.50
66271;DHT22;53063;39.614;8.814;2024-02-16T10:34:02;19.90;50.60
66271;DHT22;53063;39.614;8.814;2024-02-16T10:36:35;19.60;50.50
66271;DHT22;53063;39.614;8.814;2024-02-16T10:39:03;20.00;51.40
66271;DHT22;53063;39.614;8.814;2024-02-16T10:41:35;19.50;51.10
66271;DHT22;53063;39.614;8.814;2024-02-16T10:44:02;20.20;50.40
66271;DHT22;53063;39.614;8.814;2024-02-16T10:46:29;20.40;50.50
66271;DHT22;53063;39.614;8.814;2024-02-16T10:48:55;20.50;50.60
66271;DHT22;53063;39.614;8.814;2024-02-16T10:51:43;20.70;50.40
66271;DHT22;53063;39.614;8.814;2024-02-16T10:54:11;20.50;50.70
66271;DHT22;53063;39.614;8.814;2024-02-16T10:56:40;21.10;49.40
66271;DHT22;53063;39.614;8.814;2024-02-16T10:59:07;20.80;49.60
66271;DHT22;53063;39.614;8.814;2024-02-16T11:01:38;21.60;47.00
66271;DHT22;53063;39.614;8.814;2024-02-16T11:04:06;21.20;49.20
66271;DHT22;53063;39.614;8.814;2024-02-16T11:06:54;20.40;48.70
66271;DHT22;53063;39.614;8.814;2024-02-16T11:09:29;20.50;49.80
66271;DHT22;53063;39.614;8.814;2024-02-16T11:11:58;20.30;48.50
66271;DHT22;53063;39.614;8.814;2024-02-16T11:14:37;20.30;46.70
66271;DHT22;53063;39.614;8.814;2024-02-16T11:17:13;20.30;46.30
66271;DHT22;53063;39.614;8.814;2024-02-16T11:19:46;20.30;45.90
66271;DHT22;53063;39.614;8.814;2024-02-16T11:22:17;20.40;46.20
66271;DHT22;53063;39.614;8.814;2024-02-16T11:24:45;19.50;47.80
66271;DHT22;53063;39.614;8.814;2024-02-16T11:27:13;19.60;48.40
66271;DHT22;53063;39.614;8.814;2024-02-16T11:29:46;19.50;48.40
66271;DHT22;53063;39.614;8.814;2024-02-16T11:32:12;19.70;47.10
66271;DHT22;53063;39.614;8.814;2024-02-16T11:34:38;19.60;48.30
66271;DHT22;53063;39.614;8.814;2024-02-16T11:37:04;19.80;48.70
66271;DHT22;53063;39.614;8.814;2024-02-16T11:39:33;20.00;48.40
66271;DHT22;53063;39.614;8.814;2024-02-16T11:42:03;19.60;47.60
66271;DHT22;53063;39.614;8.814;2024-02-16T11:44:34;19.10;48.30
66271;DHT22;53063;39.614;8.814;2024-02-16T11:47:02;18.80;49.40
66271;DHT22;53063;39.614;8.814;2024-02-16T11:49:32;19.00;49.20
66271;DHT22;53063;39.614;8.814;2024-02-16T11:52:04;18.90;48.90
66271;DHT22;53063;39.614;8.814;2024-02-16T11:54:30;18.70;48.90
66271;DHT22;53063;39.614;8.814;2024-02-16T11:56:57;18.50;49.20
66271;DHT22;53063;39.614;8.814;2024-02-16T11:59:23;18.50;49.90
66271;DHT22;53063;39.614;8.814;2024-02-16T12:04:24;18.40;49.50
66271;DHT22;53063;39.614;8.814;2024-02-16T12:07:02;18.40;49.70
66271;DHT22;53063;39.614;8.814;2024-02-16T12:09:33;18.40;50.70
66271;DHT22;53063;39.614;8.814;2024-02-16T12:12:00;18.10;53.50
66271;DHT22;53063;39.614;8.814;2024-02-16T12:14:26;18.20;54.60
66271;DHT22;53063;39.614;8.814;2024-02-16T12:16:55;18.10;54.60
66271;DHT22;53063;39.614;8.814;2024-02-16T12:19:22;18.00;54.60
66271;DHT22;53063;39.614;8.814;2024-02-16T12:21:49;18.10;54.00
66271;DHT22;53063;39.614;8.814;2024-02-16T12:24:17;18.00;54.10
66271;DHT22;53063;39.614;8.814;2024-02-16T12:26:43;18.10;54.50
66271;DHT22;53063;39.614;8.814;2024-02-16T12:29:09;18.10;54.50
66271;DHT22;53063;39.614;8.814;2024-02-16T12:31:42;18.10;53.70
66271;DHT22;53063;39.614;8.814;2024-02-16T12:34:08;18.00;54.30
66271;DHT22;53063;39.614;8.814;2024-02-16T12:36:35;18.10;53.80
66271;DHT22;53063;39.614;8.814;2024-02-16T12:39:01;18.00;53.70
66271;DHT22;53063;39.614;8.814;2024-02-16T12:41:38;18.00;53.60
66271;DHT22;53063;39.614;8.814;2024-02-16T12:44:04;18.00;54.60
66271;DHT22;53063;39.614;8.814;2024-02-16T12:46:31;17.90;55.90
66271;DHT22;53063;39.614;8.814;2024-02-16T12:48:57;18.00;58.30
66271;DHT22;53063;39.614;8.814;2024-02-16T12:51:23;17.30;66.70
66271;DHT22;53063;39.614;8.814;2024-02-16T12:53:49;17.20;68.60
66271;DHT22;53063;39.614;8.814;2024-02-16T12:56:15;17.00;71.90
66271;DHT22;53063;39.614;8.814;2024-02-16T12:58:42;17.00;72.20
66271;DHT22;53063;39.614;8.814;2024-02-16T13:01:08;16.90;74.20
66271;DHT22;53063;39.614;8.814;2024-02-16T13:03:35;16.80;75.20
66271;DHT22;53063;39.614;8.814;2024-02-16T13:06:01;16.70;76.00
66271;DHT22;53063;39.614;8.814;2024-02-16T13:08:28;16.80;75.90
66271;DHT22;53063;39.614;8.814;2024-02-16T13:10:55;16.60;77.20
66271;DHT22;53063;39.614;8.814;2024-02-16T13:13:21;16.60;78.60
66271;DHT22;53063;39.614;8.814;2024-02-16T13:15:48;16.80;78.10
66271;DHT22;53063;39.614;8.814;2024-02-16T13:18:14;16.70;79.50
66271;DHT22;53063;39.614;8.814;2024-02-16T13:20:40;16.70;80.60
66271;DHT22;53063;39.614;8.814;2024-02-16T13:23:06;16.30;82.70
66271;DHT22;53063;39.614;8.814;2024-02-16T13:25:32;16.40;82.50
66271;DHT22;53063;39.614;8.814;2024-02-16T13:27:58;16.40;81.80
66271;DHT22;53063;39.614;8.814;2024-02-16T13:30:25;16.40;82.90
66271;DHT22;53063;39.614;8.814;2024-02-16T13:32:53;16.60;82.30
66271;DHT22;53063;39.614;8.814;2024-02-16T13:35:19;16.70;82.60
66271;DHT22;53063;39.614;8.814;2024-02-16T13:37:45;16.60;82.80
66271;DHT22;53063;39.614;8.814;2024-02-16T13:40:12;16.60;83.60
66271;DHT22;53063;39.614;8.814;2024-02-16T13:42:41;16.50;83.40
66271;DHT22;53063;39.614;8.814;2024-02-16T13:45:08;16.60;84.70
66271;DHT22;53063;39.614;8.814;2024-02-16T13:47:35;16.40;86.00
66271;DHT22;53063;39.614;8.814;2024-02-16T13:50:01;16.30;86.80
66271;DHT22;53063;39.614;8.814;2024-02-16T13:52:27;16.10;87.90
66271;DHT22;53063;39.614;8.814;2024-02-16T13:54:53;16.10;89.20
66271;DHT22;53063;39.614;8.814;2024-02-16T13:57:20;16.20;90.20
66271;DHT22;53063;39.614;8.814;2024-02-16T13:59:46;16.00;90.60
66271;DHT22;53063;39.614;8.814;2024-02-16T14:02:12;15.90;90.10
66271;DHT22;53063;39.614;8.814;2024-02-16T14:04:39;15.80;91.30
66271;DHT22;53063;39.614;8.814;2024-02-16T14:07:05;15.90;92.10
66271;DHT22;53063;39.614;8.814;2024-02-16T14:09:31;16.00;92.00
66271;DHT22;53063;39.614;8.814;2024-02-16T14:11:57;15.90;92.10
66271;DHT22;53063;39.614;8.814;2024-02-16T14:14:27;16.00;92.60
66271;DHT22;53063;39.614;8.814;2024-02-16T14:16:54;16.00;92.50
66271;DHT22;53063;39.614;8.814;2024-02-16T14:19:20;15.90;92.90
66271;DHT22;53063;39.614;8.814;2024-02-16T14:21:46;15.80;94.90
66271;DHT22;53063;39.614;8.814;2024-02-16T14:24:14;15.80;96.20
66271;DHT22;53063;39.614;8.814;2024-02-16T14:26:41;15.80;97.20
66271;DHT22;53063;39.614;8.814;2024-02-16T14:29:08;15.80;97.80
66271;DHT22;53063;39.614;8.814;2024-02-16T14:31:34;15.90;96.80
66271;DHT22;53063;39.614;8.814;2024-02-16T14:34:00;15.70;97.30
66271;DHT22;53063;39.614;8.814;2024-02-16T14:36:26;15.90;97.60
66271;DHT22;53063;39.614;8.814;2024-02-16T14:38:52;15.90;97.50
66271;DHT22;53063;39.614;8.814;2024-02-16T14:41:18;15.80;97.80
66271;DHT22;53063;39.614;8.814;2024-02-16T14:43:44;15.80;98.50
66271;DHT22;53063;39.614;8.814;2024-02-16T14:46:10;15.90;98.70
66271;DHT22;53063;39.614;8.814;2024-02-16T14:48:36;15.90;97.40
66271;DHT22;53063;39.614;8.814;2024-02-16T14:51:03;16.00;98.10
66271;DHT22;53063;39.614;8.814;2024-02-16T14:53:29;15.90;96.30
66271;DHT22;53063;39.614;8.814;2024-02-16T14:56:01;16.00;95.40
66271;DHT22;53063;39.614;8.814;2024-02-16T14:58:31;16.00;95.30
66271;DHT22;53063;39.614;8.814;2024-02-16T15:00:57;16.00;95.80
66271;DHT22;53063;39.614;8.814;2024-02-16T15:03:23;16.20;95.30
66271;DHT22;53063;39.614;8.814;2024-02-16T15:05:51;16.30;94.30
66271;DHT22;53063;39.614;8.814;2024-02-16T15:08:17;16.30;93.00
66271;DHT22;53063;39.614;8.814;2024-02-16T15:10:42;16.20;94.00
66271;DHT22;53063;39.614;8.814;2024-02-16T15:13:09;16.30;93.60
66271;DHT22;53063;39.614;8.814;2024-02-16T15:15:35;16.30;92.10
66271;DHT22;53063;39.614;8.814;2024-02-16T15:18:01;16.30;91.60
66271;DHT22;53063;39.614;8.814;2024-02-16T15:20:28;16.20;91.80
66271;DHT22;53063;39.614;8.814;2024-02-16T15:22:54;16.20;91.00
66271;DHT22;53063;39.614;8.814;2024-02-16T15:25:21;16.30;91.10
66271;DHT22;53063;39.614;8.814;2024-02-16T15:27:48;16.40;90.50
66271;DHT22;53063;39.614;8.814;2024-02-16T15:30:14;16.40;90.50
66271;DHT22;53063;39.614;8.814;2024-02-16T15:32:40;16.40;90.40
66271;DHT22;53063;39.614;8.814;2024-02-16T15:35:06;16.10;90.60